Ascension Island, Ascension Island

4:45 PM GMT on August 04, 2015 (GMT +0000)
Ascension Aux Air Base / Wideawake Field | | Change Station
CLOSE
Current Station
Airport
Location: Ascension Island,
Elevation: 259 ft
Nearby Weather Stations

Elev 259 ft 7.97 °S, 14.41 °W | Updated 55 minutes ago

Mostly Cloudy
Mostly Cloudy
77 °F
Feels Like 77 °F
N
20
Wind Variable Wind from SSE

Today
High -- | Low -- °F
--% Chance of Precip.
Yesterday
High -- | Low -- °F
Precip. -- in
7:10 AM 6:57 PM
Waning Gibbous, 76% visible
Pressure 30.01 in
Visibility 6.2 miles
Clouds Scattered Clouds 2200 ft
Mostly Cloudy 3500 ft
Dew Point 63 °F
Humidity 61%
Rainfall 0.00 in
Snow Depth Not available.
UV 4 out of 12
Pollen Not available.
Air Quality Not available.
Flu Activity Not available.
METAR FHAW 041550Z 15017KT 9999 SCT022 BKN035 25/17 Q1016 WHT TEMPO 7000 -SHRA WHT

More Conditions Fewer Conditions

Pressure 30.01 in
Visibility 6.2 miles
Clouds Scattered Clouds 2200 ft
Mostly Cloudy 3500 ft
Dew Point 63 °F
Humidity 61%
Rainfall 0.00 in
Snow Depth Not available.
UV 4 out of 12
Pollen Not available.
Air Quality Not available.
Flu Activity Not available.
METAR FHAW 041550Z 15017KT 9999 SCT022 BKN035 25/17 Q1016 WHT TEMPO 7000 -SHRA WHT

More Conditions Fewer Conditions

10-Day Weather Forecast

×

Almanac

Astronomy

Aug. 04, 2015 Rise Set
Actual Time
Civil Twilight
Nautical Twilight
Astronomical Twilight
Moon
Length of Visible Light
Length of Day
Tomorrow will be .
, % of the Moon is Illuminated

Today's Extremes

Country Highs Country Lows

Community

WunderPhotos

Upload Photos

1,843,920 photos uploaded!

WunderBlogs® & News

Nearby

Air Quality

  Air Quality AQ Index Pollutant
Not available.

Snow Depth

Station Depth Elevation

Earthquake Activity

City Distance Mag. Time & Date
Minimum magnitude displayed is 2.5.

Coastal Water Temperatures

Place Temperature

Stations

Nearby Weather Stations

Station Location Temp. Windchill Dew Point Humidity Wind Precip. Elev Updated Type